createdAt,value
2019-05-17T00:04:18.666Z,10.33
2019-05-17T00:09:20.726Z,9.47
2019-05-17T00:14:22.798Z,9.97
2019-05-17T00:19:27.228Z,11.70
2019-05-17T00:24:29.309Z,10.70
2019-05-17T00:29:31.336Z,12.17
2019-05-17T00:34:33.405Z,10.97
2019-05-17T00:39:36.679Z,11.77
2019-05-17T00:44:39.267Z,12.20
2019-05-17T00:49:41.373Z,11.73
2019-05-17T00:54:43.443Z,11.80
2019-05-17T00:59:47.546Z,10.87
2019-05-17T01:04:49.435Z,12.37
2019-05-17T01:09:51.593Z,11.90
2019-05-17T01:14:53.637Z,11.37
2019-05-17T01:19:57.351Z,12.13
2019-05-17T01:25:00.807Z,12.53
2019-05-17T01:30:22.694Z,12.30
2019-05-17T01:35:26.657Z,12.77
2019-05-17T01:40:28.804Z,13.07
2019-05-17T01:45:30.851Z,13.30
2019-05-17T01:50:32.980Z,13.27
2019-05-17T01:55:37.201Z,15.17
2019-05-17T02:00:39.078Z,14.17
2019-05-17T02:05:41.112Z,15.17
2019-05-17T02:10:43.162Z,14.77
2019-05-17T02:15:46.988Z,14.57
2019-05-17T02:20:49.170Z,15.43
2019-05-17T02:25:51.221Z,14.63
2019-05-17T02:30:53.818Z,15.77
2019-05-17T02:35:55.842Z,16.10
2019-05-17T02:40:58.169Z,16.27
2019-05-17T02:46:03.232Z,15.90
2019-05-17T02:51:04.258Z,16.90
2019-05-17T02:56:06.335Z,18.10
2019-05-17T03:01:08.544Z,17.90
2019-05-17T03:06:13.381Z,19.57
2019-05-17T03:11:14.531Z,18.23
2019-05-17T03:16:16.572Z,19.90
2019-05-17T03:21:22.773Z,19.03
2019-05-17T03:26:23.528Z,18.90
2019-05-17T03:31:26.825Z,18.40
2019-05-17T03:36:29.317Z,20.20
2019-05-17T03:41:34.053Z,19.90
2019-05-17T03:46:35.399Z,19.03
2019-05-17T03:51:48.000Z,20.73
2019-05-17T03:56:53.002Z,20.17
2019-05-17T04:01:54.245Z,20.10
2019-05-17T04:06:56.287Z,20.20
2019-05-17T04:11:58.392Z,20.77
2019-05-17T04:17:03.023Z,20.17
2019-05-17T04:22:04.498Z,21.10
2019-05-17T04:27:06.515Z,21.80
2019-05-17T04:32:08.568Z,22.10
2019-05-17T04:37:13.051Z,22.67
2019-05-17T04:42:15.399Z,22.23
2019-05-17T04:47:22.941Z,22.40
2019-05-17T04:52:24.744Z,22.17
2019-05-17T04:57:26.802Z,22.43
2019-05-17T05:02:28.834Z,23.47
2019-05-17T05:07:33.535Z,22.87
2019-05-17T05:12:34.856Z,21.67
2019-05-17T05:17:36.993Z,22.03
2019-05-17T05:22:39.036Z,22.47
2019-05-17T05:27:42.558Z,21.67
2019-05-17T05:32:45.097Z,21.73
2019-05-17T05:37:47.191Z,22.13
2019-05-17T05:42:51.493Z,22.67
2019-05-17T05:47:53.552Z,21.60
2019-05-17T05:52:55.656Z,20.90
2019-05-17T05:57:57.639Z,21.53
2019-05-17T06:02:59.658Z,21.43
2019-05-17T06:08:52.166Z,20.07
2019-05-17T06:14:01.612Z,20.40
2019-05-17T06:19:03.596Z,19.97
2019-05-17T06:24:05.692Z,20.90
2019-05-17T06:29:07.722Z,20.43
2019-05-17T06:34:11.614Z,21.23
2019-05-17T06:39:13.949Z,19.73
2019-05-17T06:44:16.063Z,19.63
2019-05-17T06:49:19.148Z,19.87
2019-05-17T06:54:21.686Z,19.57
2019-05-17T06:59:23.937Z,18.70
2019-05-17T07:04:26.025Z,19.83
2019-05-17T07:09:30.186Z,18.77
2019-05-17T07:14:31.935Z,19.93
2019-05-17T07:19:36.778Z,19.70
2019-05-17T07:24:41.226Z,19.27
2019-05-17T07:29:43.509Z,20.23
2019-05-17T07:34:45.678Z,20.33
2019-05-17T07:39:58.597Z,19.63
2019-05-17T07:44:52.157Z,18.47
2019-05-17T07:49:54.710Z,18.03
2019-05-17T07:55:01.917Z,19.13
2019-05-17T08:00:00.923Z,16.97
2019-05-17T08:05:03.738Z,18.30
2019-05-17T08:10:07.399Z,18.07
2019-05-17T08:15:10.735Z,19.23
2019-05-17T08:20:14.534Z,18.80
2019-05-17T08:25:17.110Z,20.30
2019-05-17T08:30:20.654Z,18.30
2019-05-17T08:35:23.147Z,19.97
2019-05-17T08:40:25.205Z,19.17
2019-05-17T08:45:29.502Z,22.07
2019-05-17T08:50:31.265Z,15.73
2019-05-17T08:55:33.707Z,15.27
2019-05-17T09:00:35.866Z,15.53
2019-05-17T09:05:37.892Z,14.23
2019-05-17T09:10:40.932Z,12.47
2019-05-17T09:15:43.324Z,11.33
2019-05-17T09:20:45.499Z,10.13
2019-05-17T09:25:49.911Z,12.53
2019-05-17T09:30:51.556Z,10.90
2019-05-17T09:35:53.610Z,11.50
2019-05-17T09:40:55.698Z,8.13
2019-05-17T09:45:57.670Z,8.23
2019-05-17T09:51:01.267Z,7.53
2019-05-17T09:56:03.328Z,7.83
2019-05-17T10:01:05.635Z,9.10
2019-05-17T10:06:09.656Z,6.50
2019-05-17T10:11:12.218Z,6.23
2019-05-17T10:16:14.390Z,6.77
2019-05-17T10:21:16.422Z,6.97
2019-05-17T10:26:19.705Z,7.90
2019-05-17T10:31:22.343Z,8.50
2019-05-17T10:36:24.416Z,8.00
2019-05-17T10:41:26.542Z,8.50
2019-05-17T10:46:30.000Z,8.87
2019-05-17T10:51:32.400Z,9.07
2019-05-17T10:56:34.474Z,8.50
2019-05-17T11:01:36.560Z,9.20
2019-05-17T11:06:39.413Z,9.67
2019-05-17T11:11:41.613Z,8.73
2019-05-17T11:16:43.673Z,9.07
2019-05-17T11:21:45.784Z,9.33
2019-05-17T11:26:48.111Z,8.53
2019-05-17T11:31:50.200Z,9.13
2019-05-17T11:36:52.243Z,8.27
2019-05-17T11:41:54.324Z,8.10
2019-05-17T11:46:56.413Z,7.80
2019-05-17T11:51:58.481Z,8.20
2019-05-17T11:57:00.705Z,9.50
2019-05-17T12:02:02.743Z,9.27
2019-05-17T12:07:04.812Z,9.83
2019-05-17T12:12:06.892Z,9.30
2019-05-17T12:17:08.972Z,9.53
2019-05-17T12:22:10.999Z,8.90
2019-05-17T12:27:13.431Z,9.10
2019-05-17T12:32:17.104Z,8.67
2019-05-17T12:37:19.466Z,8.27
2019-05-17T12:42:21.566Z,7.40
2019-05-17T12:47:23.709Z,7.27
2019-05-17T12:52:25.746Z,7.70
2019-05-17T12:57:28.028Z,7.33
2019-05-17T13:02:30.129Z,6.77
2019-05-17T13:07:34.963Z,6.77
2019-05-17T13:12:39.437Z,6.67
2019-05-17T13:17:48.575Z,7.27
2019-05-17T13:22:51.523Z,8.20
2019-05-17T13:27:53.637Z,9.37
2019-05-17T13:32:56.708Z,9.97
2019-05-17T13:37:58.930Z,10.13
2019-05-17T13:43:01.357Z,10.97
2019-05-17T13:48:03.754Z,10.00
2019-05-17T13:53:07.714Z,9.20
2019-05-17T13:58:09.814Z,9.87
2019-05-17T14:03:11.960Z,9.10
2019-05-17T14:08:13.987Z,9.53
2019-05-17T14:13:19.341Z,8.87
2019-05-17T14:18:23.001Z,8.57
2019-05-17T14:23:29.130Z,8.17
2019-05-17T14:28:31.218Z,7.43
2019-05-17T14:33:36.042Z,8.07
2019-05-17T14:38:40.954Z,7.90
2019-05-17T14:43:43.230Z,8.13
2019-05-17T14:48:45.306Z,8.30
2019-05-17T14:53:47.394Z,8.87
2019-05-17T14:58:49.675Z,8.77
2019-05-17T15:03:51.779Z,8.30
2019-05-17T15:08:53.891Z,8.03
2019-05-17T15:13:55.918Z,8.20
2019-05-17T15:18:57.969Z,7.97
2019-05-17T15:24:00.083Z,8.00
2019-05-17T15:29:02.293Z,7.93
2019-05-17T15:34:04.455Z,7.23
2019-05-17T15:39:06.554Z,8.10
2019-05-17T15:44:08.913Z,8.00
2019-05-17T15:49:11.253Z,7.80
2019-05-17T15:54:15.703Z,7.30
2019-05-17T15:59:17.926Z,8.00
2019-05-17T16:04:19.976Z,8.53
2019-05-17T16:09:22.036Z,8.17
2019-05-17T16:14:24.074Z,8.23
2019-05-17T16:19:28.021Z,8.87
2019-05-17T16:24:30.166Z,8.87
2019-05-17T16:29:32.175Z,8.90
2019-05-17T16:34:34.363Z,9.00
2019-05-17T16:39:36.410Z,7.80
2019-05-17T16:44:38.509Z,8.10
2019-05-17T16:49:40.543Z,8.13
2019-05-17T16:54:42.591Z,8.33
2019-05-17T16:59:44.828Z,7.37
2019-05-17T17:04:46.988Z,8.73
2019-05-17T17:09:49.085Z,8.93
2019-05-17T17:14:51.379Z,7.77
2019-05-17T17:19:53.494Z,9.10
2019-05-17T17:24:55.587Z,8.70
2019-05-17T17:29:57.613Z,8.53
2019-05-17T17:35:01.970Z,8.13
2019-05-17T17:40:04.362Z,7.93
2019-05-17T17:45:08.574Z,8.00
2019-05-17T17:50:11.152Z,7.77
2019-05-17T17:55:13.300Z,7.47
2019-05-17T18:00:16.615Z,7.70
2019-05-17T18:05:18.744Z,7.40
2019-05-17T18:10:26.483Z,7.10
2019-05-17T18:15:45.204Z,8.23
2019-05-17T18:20:49.183Z,7.70
2019-05-17T18:25:51.337Z,6.93
2019-05-17T18:30:53.398Z,6.73
2019-05-17T18:35:55.578Z,7.37
2019-05-17T18:40:59.626Z,8.27
2019-05-17T18:46:01.805Z,7.40
2019-05-17T18:51:03.955Z,7.20
2019-05-17T18:56:08.823Z,8.00
2019-05-17T19:01:11.406Z,8.30
2019-05-17T19:06:13.579Z,7.50
2019-05-17T19:11:15.666Z,8.73
2019-05-17T19:16:17.728Z,8.10
2019-05-17T19:21:19.773Z,9.33
2019-05-17T19:26:21.879Z,10.37
2019-05-17T19:31:24.252Z,10.27
2019-05-17T19:36:26.496Z,11.33
2019-05-17T19:41:28.589Z,10.23
2019-05-17T19:46:30.761Z,10.20
2019-05-17T19:51:33.040Z,12.67
2019-05-17T19:56:39.656Z,13.33
2019-05-17T20:01:42.197Z,13.13
2019-05-17T20:06:44.900Z,13.67
2019-05-17T20:11:47.215Z,14.60
2019-05-17T20:16:49.308Z,13.60
2019-05-17T20:21:53.487Z,15.20
2019-05-17T20:26:55.523Z,13.23
2019-05-17T20:32:10.445Z,15.20
2019-05-17T20:37:13.463Z,15.43
2019-05-17T20:42:31.013Z,15.93
2019-05-17T20:47:33.347Z,16.77
2019-05-17T20:52:35.478Z,15.97
2019-05-17T20:57:39.376Z,15.73
2019-05-17T21:02:44.669Z,16.83
2019-05-17T21:07:48.736Z,15.83
2019-05-17T21:12:50.806Z,16.83
2019-05-17T21:17:54.653Z,16.20
2019-05-17T21:23:04.245Z,16.37
2019-05-17T21:28:06.339Z,18.10
2019-05-17T21:33:08.475Z,17.23
2019-05-17T21:38:10.611Z,18.73
2019-05-17T21:43:12.646Z,18.37
2019-05-17T21:48:14.722Z,20.37
2019-05-17T21:53:16.772Z,17.17
2019-05-17T21:58:20.411Z,17.27
2019-05-17T22:03:22.915Z,17.03
2019-05-17T22:08:24.905Z,18.30
2019-05-17T22:13:26.973Z,17.87
2019-05-17T22:18:29.055Z,16.90
2019-05-17T22:23:31.103Z,17.20
2019-05-17T22:28:33.144Z,19.60
2019-05-17T22:33:35.186Z,18.73
2019-05-17T22:38:37.225Z,18.23
2019-05-17T22:43:39.265Z,18.17
2019-05-17T22:48:41.356Z,17.70
2019-05-17T22:53:43.475Z,17.73
2019-05-17T22:58:45.528Z,17.00
2019-05-17T23:03:47.703Z,17.80
2019-05-17T23:08:49.751Z,17.33
2019-05-17T23:13:52.992Z,17.40
2019-05-17T23:19:10.578Z,16.43
2019-05-17T23:24:12.821Z,16.90
2019-05-17T23:29:14.889Z,16.73
2019-05-17T23:34:16.832Z,17.20
2019-05-17T23:39:21.066Z,17.20
2019-05-17T23:44:23.139Z,17.17
2019-05-17T23:49:25.237Z,16.07
2019-05-17T23:54:27.452Z,16.97
2019-05-17T23:59:29.504Z,16.57
